sensor_id;sensor_type;location;lat;lon;timestamp;temperature;humidity
11320;DHT22;5715;48.234;14.320;2023-04-03T00:02:06;5.10;99.90
11320;DHT22;5715;48.234;14.320;2023-04-03T00:04:53;5.10;99.90
11320;DHT22;5715;48.234;14.320;2023-04-03T00:07:41;5.10;99.90
11320;DHT22;5715;48.234;14.320;2023-04-03T00:10:28;5.00;99.90
11320;DHT22;5715;48.234;14.320;2023-04-03T00:13:17;5.00;99.90
11320;DHT22;5715;48.234;14.320;2023-04-03T00:16:06;5.00;99.90
11320;DHT22;5715;48.234;14.320;2023-04-03T00:18:54;5.00;99.90
11320;DHT22;5715;48.234;14.320;2023-04-03T00:21:42;4.90;99.90
11320;DHT22;5715;48.234;14.320;2023-04-03T00:24:30;4.90;99.90
11320;DHT22;5715;48.234;14.320;2023-04-03T00:27:17;5.00;99.90
11320;DHT22;5715;48.234;14.320;2023-04-03T00:30:06;5.10;99.90
11320;DHT22;5715;48.234;14.320;2023-04-03T00:32:56;5.10;99.90
11320;DHT22;5715;48.234;14.320;2023-04-03T00:35:44;5.10;99.90
11320;DHT22;5715;48.234;14.320;2023-04-03T00:38:32;5.10;99.90
11320;DHT22;5715;48.234;14.320;2023-04-03T00:41:19;5.10;99.90
11320;DHT22;5715;48.234;14.320;2023-04-03T00:47:16;5.10;99.90
11320;DHT22;5715;48.234;14.320;2023-04-03T00:50:05;5.10;99.90
11320;DHT22;5715;48.234;14.320;2023-04-03T00:52:53;5.10;99.90
11320;DHT22;5715;48.234;14.320;2023-04-03T00:55:43;5.00;99.90
11320;DHT22;5715;48.234;14.320;2023-04-03T00:58:44;4.90;99.90
11320;DHT22;5715;48.234;14.320;2023-04-03T01:01:42;4.80;99.90
11320;DHT22;5715;48.234;14.320;2023-04-03T01:04:36;4.80;99.90
11320;DHT22;5715;48.234;14.320;2023-04-03T01:07:29;4.70;99.90
11320;DHT22;5715;48.234;14.320;2023-04-03T01:10:19;4.70;99.90
11320;DHT22;5715;48.234;14.320;2023-04-03T01:13:43;4.70;99.90
11320;DHT22;5715;48.234;14.320;2023-04-03T01:16:31;4.70;99.90
11320;DHT22;5715;48.234;14.320;2023-04-03T01:19:21;4.80;99.90
11320;DHT22;5715;48.234;14.320;2023-04-03T01:22:19;4.80;99.90
11320;DHT22;5715;48.234;14.320;2023-04-03T01:25:15;4.80;99.90
11320;DHT22;5715;48.234;14.320;2023-04-03T01:28:09;4.90;99.90
11320;DHT22;5715;48.234;14.320;2023-04-03T01:31:24;4.90;99.90
11320;DHT22;5715;48.234;14.320;2023-04-03T01:34:15;4.90;99.90
11320;DHT22;5715;48.234;14.320;2023-04-03T01:37:02;4.90;99.90
11320;DHT22;5715;48.234;14.320;2023-04-03T01:39:50;4.90;99.90
11320;DHT22;5715;48.234;14.320;2023-04-03T01:42:37;4.90;99.90
11320;DHT22;5715;48.234;14.320;2023-04-03T01:45:25;4.90;99.90
11320;DHT22;5715;48.234;14.320;2023-04-03T01:48:13;4.90;99.90
11320;DHT22;5715;48.234;14.320;2023-04-03T01:51:00;4.90;99.90
11320;DHT22;5715;48.234;14.320;2023-04-03T01:53:48;4.90;99.90
11320;DHT22;5715;48.234;14.320;2023-04-03T01:56:35;4.80;99.90
11320;DHT22;5715;48.234;14.320;2023-04-03T01:59:23;4.80;99.90
11320;DHT22;5715;48.234;14.320;2023-04-03T02:02:10;4.80;99.90
11320;DHT22;5715;48.234;14.320;2023-04-03T02:04:59;4.80;99.90
11320;DHT22;5715;48.234;14.320;2023-04-03T02:07:46;4.80;99.90
11320;DHT22;5715;48.234;14.320;2023-04-03T02:10:34;4.80;99.90
11320;DHT22;5715;48.234;14.320;2023-04-03T02:13:22;4.80;99.90
11320;DHT22;5715;48.234;14.320;2023-04-03T02:16:11;4.80;99.90
11320;DHT22;5715;48.234;14.320;2023-04-03T02:18:59;4.80;99.90
11320;DHT22;5715;48.234;14.320;2023-04-03T02:21:47;4.70;99.90
11320;DHT22;5715;48.234;14.320;2023-04-03T02:24:34;4.70;99.90
11320;DHT22;5715;48.234;14.320;2023-04-03T02:27:22;4.70;99.90
11320;DHT22;5715;48.234;14.320;2023-04-03T02:30:10;4.70;99.90
11320;DHT22;5715;48.234;14.320;2023-04-03T02:32:58;4.60;99.90
11320;DHT22;5715;48.234;14.320;2023-04-03T02:35:45;4.60;99.90
11320;DHT22;5715;48.234;14.320;2023-04-03T02:38:40;4.60;99.90
11320;DHT22;5715;48.234;14.320;2023-04-03T02:41:27;4.60;99.90
11320;DHT22;5715;48.234;14.320;2023-04-03T02:44:21;4.60;99.90
11320;DHT22;5715;48.234;14.320;2023-04-03T02:47:10;4.60;99.90
11320;DHT22;5715;48.234;14.320;2023-04-03T02:49:58;4.60;99.90
11320;DHT22;5715;48.234;14.320;2023-04-03T02:52:46;4.50;99.90
11320;DHT22;5715;48.234;14.320;2023-04-03T02:55:33;4.60;99.90
11320;DHT22;5715;48.234;14.320;2023-04-03T02:58:21;4.60;99.90
11320;DHT22;5715;48.234;14.320;2023-04-03T03:01:08;4.60;99.90
11320;DHT22;5715;48.234;14.320;2023-04-03T03:03:57;4.50;99.90
11320;DHT22;5715;48.234;14.320;2023-04-03T03:06:45;4.50;99.90
11320;DHT22;5715;48.234;14.320;2023-04-03T03:09:33;4.50;99.90
11320;DHT22;5715;48.234;14.320;2023-04-03T03:12:21;4.50;99.90
11320;DHT22;5715;48.234;14.320;2023-04-03T03:15:10;4.50;99.90
11320;DHT22;5715;48.234;14.320;2023-04-03T03:17:58;4.50;99.90
11320;DHT22;5715;48.234;14.320;2023-04-03T03:20:45;4.60;99.90
11320;DHT22;5715;48.234;14.320;2023-04-03T03:23:33;4.60;99.90
11320;DHT22;5715;48.234;14.320;2023-04-03T03:26:22;4.60;99.90
11320;DHT22;5715;48.234;14.320;2023-04-03T03:29:09;4.50;99.90
11320;DHT22;5715;48.234;14.320;2023-04-03T03:31:57;4.50;99.90
11320;DHT22;5715;48.234;14.320;2023-04-03T03:34:44;4.50;99.90
11320;DHT22;5715;48.234;14.320;2023-04-03T03:37:32;4.50;99.90
11320;DHT22;5715;48.234;14.320;2023-04-03T03:40:19;4.50;99.90
11320;DHT22;5715;48.234;14.320;2023-04-03T03:43:07;4.50;99.90
11320;DHT22;5715;48.234;14.320;2023-04-03T03:45:57;4.50;99.90
11320;DHT22;5715;48.234;14.320;2023-04-03T03:48:45;4.50;99.90
11320;DHT22;5715;48.234;14.320;2023-04-03T03:51:32;4.50;99.90
11320;DHT22;5715;48.234;14.320;2023-04-03T03:54:20;4.60;99.90
11320;DHT22;5715;48.234;14.320;2023-04-03T03:57:07;4.60;99.90
11320;DHT22;5715;48.234;14.320;2023-04-03T03:59:55;4.60;99.90
11320;DHT22;5715;48.234;14.320;2023-04-03T04:02:43;4.60;99.90
11320;DHT22;5715;48.234;14.320;2023-04-03T04:05:31;4.60;99.90
11320;DHT22;5715;48.234;14.320;2023-04-03T04:08:19;4.50;99.90
11320;DHT22;5715;48.234;14.320;2023-04-03T04:11:07;4.50;99.90
11320;DHT22;5715;48.234;14.320;2023-04-03T04:13:55;4.50;99.90
11320;DHT22;5715;48.234;14.320;2023-04-03T04:16:42;4.40;99.90
11320;DHT22;5715;48.234;14.320;2023-04-03T04:19:30;4.40;99.90
11320;DHT22;5715;48.234;14.320;2023-04-03T04:22:18;4.40;99.90
11320;DHT22;5715;48.234;14.320;2023-04-03T04:25:05;4.40;99.90
11320;DHT22;5715;48.234;14.320;2023-04-03T04:27:53;4.40;99.90
11320;DHT22;5715;48.234;14.320;2023-04-03T04:30:41;4.40;99.90
11320;DHT22;5715;48.234;14.320;2023-04-03T04:33:28;4.40;99.90
11320;DHT22;5715;48.234;14.320;2023-04-03T04:36:16;4.40;99.90
11320;DHT22;5715;48.234;14.320;2023-04-03T04:39:03;4.40;99.90
11320;DHT22;5715;48.234;14.320;2023-04-03T04:41:52;4.30;99.90
11320;DHT22;5715;48.234;14.320;2023-04-03T04:44:39;4.30;99.90
11320;DHT22;5715;48.234;14.320;2023-04-03T04:47:29;4.30;99.90
11320;DHT22;5715;48.234;14.320;2023-04-03T04:50:16;4.30;99.90
11320;DHT22;5715;48.234;14.320;2023-04-03T04:53:04;4.30;99.90
11320;DHT22;5715;48.234;14.320;2023-04-03T04:55:52;4.40;99.90
11320;DHT22;5715;48.234;14.320;2023-04-03T04:58:40;4.40;99.90
11320;DHT22;5715;48.234;14.320;2023-04-03T05:01:28;4.40;99.90
11320;DHT22;5715;48.234;14.320;2023-04-03T05:04:16;4.40;99.90
11320;DHT22;5715;48.234;14.320;2023-04-03T05:07:04;4.40;99.90
11320;DHT22;5715;48.234;14.320;2023-04-03T05:09:51;4.40;99.90
11320;DHT22;5715;48.234;14.320;2023-04-03T05:12:39;4.40;99.90
11320;DHT22;5715;48.234;14.320;2023-04-03T05:15:26;4.40;99.90
11320;DHT22;5715;48.234;14.320;2023-04-03T05:18:14;4.40;99.90
11320;DHT22;5715;48.234;14.320;2023-04-03T05:21:02;4.50;99.90
11320;DHT22;5715;48.234;14.320;2023-04-03T05:23:49;4.50;99.90
11320;DHT22;5715;48.234;14.320;2023-04-03T05:26:37;4.50;99.90
11320;DHT22;5715;48.234;14.320;2023-04-03T05:29:25;4.50;99.90
11320;DHT22;5715;48.234;14.320;2023-04-03T05:32:13;4.50;99.90
11320;DHT22;5715;48.234;14.320;2023-04-03T05:35:00;4.50;99.90
11320;DHT22;5715;48.234;14.320;2023-04-03T05:37:48;4.50;99.90
11320;DHT22;5715;48.234;14.320;2023-04-03T05:40:36;4.50;99.90
11320;DHT22;5715;48.234;14.320;2023-04-03T05:43:24;4.50;99.90
11320;DHT22;5715;48.234;14.320;2023-04-03T05:46:17;4.50;99.90
11320;DHT22;5715;48.234;14.320;2023-04-03T05:49:06;4.60;99.90
11320;DHT22;5715;48.234;14.320;2023-04-03T05:51:53;4.60;99.90
11320;DHT22;5715;48.234;14.320;2023-04-03T05:54:41;4.60;99.90
11320;DHT22;5715;48.234;14.320;2023-04-03T05:57:29;4.60;99.90
11320;DHT22;5715;48.234;14.320;2023-04-03T06:00:17;4.60;99.90
11320;DHT22;5715;48.234;14.320;2023-04-03T06:03:04;4.60;99.90
11320;DHT22;5715;48.234;14.320;2023-04-03T06:05:53;4.70;99.90
11320;DHT22;5715;48.234;14.320;2023-04-03T06:08:41;4.70;99.90
11320;DHT22;5715;48.234;14.320;2023-04-03T06:11:30;4.70;99.90
11320;DHT22;5715;48.234;14.320;2023-04-03T06:14:18;4.70;99.90
11320;DHT22;5715;48.234;14.320;2023-04-03T06:17:06;4.70;99.90
11320;DHT22;5715;48.234;14.320;2023-04-03T06:19:56;4.70;99.90
11320;DHT22;5715;48.234;14.320;2023-04-03T06:22:45;4.70;99.90
11320;DHT22;5715;48.234;14.320;2023-04-03T06:25:32;4.60;99.90
11320;DHT22;5715;48.234;14.320;2023-04-03T06:28:20;4.60;99.90
11320;DHT22;5715;48.234;14.320;2023-04-03T06:31:08;4.60;99.90
11320;DHT22;5715;48.234;14.320;2023-04-03T06:33:55;4.60;99.90
11320;DHT22;5715;48.234;14.320;2023-04-03T06:36:44;4.70;99.90
11320;DHT22;5715;48.234;14.320;2023-04-03T06:39:32;4.70;99.90
11320;DHT22;5715;48.234;14.320;2023-04-03T06:42:19;4.70;99.90
11320;DHT22;5715;48.234;14.320;2023-04-03T06:45:08;4.60;99.90
11320;DHT22;5715;48.234;14.320;2023-04-03T06:47:56;4.60;99.90
11320;DHT22;5715;48.234;14.320;2023-04-03T06:50:44;4.50;99.90
11320;DHT22;5715;48.234;14.320;2023-04-03T06:53:32;4.30;99.90
11320;DHT22;5715;48.234;14.320;2023-04-03T06:56:20;4.20;99.90
11320;DHT22;5715;48.234;14.320;2023-04-03T06:59:09;4.20;99.90
11320;DHT22;5715;48.234;14.320;2023-04-03T07:01:59;4.10;99.90
11320;DHT22;5715;48.234;14.320;2023-04-03T07:04:47;4.00;99.90
11320;DHT22;5715;48.234;14.320;2023-04-03T07:07:35;4.00;99.90
11320;DHT22;5715;48.234;14.320;2023-04-03T07:10:25;4.10;99.90
11320;DHT22;5715;48.234;14.320;2023-04-03T07:13:13;4.10;99.90
11320;DHT22;5715;48.234;14.320;2023-04-03T07:16:00;4.10;99.90
11320;DHT22;5715;48.234;14.320;2023-04-03T07:18:50;4.20;99.90
11320;DHT22;5715;48.234;14.320;2023-04-03T07:21:38;4.20;99.90
11320;DHT22;5715;48.234;14.320;2023-04-03T07:24:27;4.30;99.90
11320;DHT22;5715;48.234;14.320;2023-04-03T07:27:14;4.30;99.90
11320;DHT22;5715;48.234;14.320;2023-04-03T07:30:02;4.30;99.90
11320;DHT22;5715;48.234;14.320;2023-04-03T07:32:50;4.30;99.90
11320;DHT22;5715;48.234;14.320;2023-04-03T07:35:39;4.30;99.90
11320;DHT22;5715;48.234;14.320;2023-04-03T07:38:28;4.40;99.90
11320;DHT22;5715;48.234;14.320;2023-04-03T07:41:18;4.20;99.90
11320;DHT22;5715;48.234;14.320;2023-04-03T07:44:09;4.10;99.90
11320;DHT22;5715;48.234;14.320;2023-04-03T07:46:57;3.90;99.90
11320;DHT22;5715;48.234;14.320;2023-04-03T07:49:45;3.60;99.90
11320;DHT22;5715;48.234;14.320;2023-04-03T07:52:33;3.40;99.90
11320;DHT22;5715;48.234;14.320;2023-04-03T07:55:20;3.20;99.90
11320;DHT22;5715;48.234;14.320;2023-04-03T07:58:10;3.20;99.90
11320;DHT22;5715;48.234;14.320;2023-04-03T08:01:00;3.10;99.90
11320;DHT22;5715;48.234;14.320;2023-04-03T08:03:47;3.20;99.90
11320;DHT22;5715;48.234;14.320;2023-04-03T08:06:35;3.30;99.90
11320;DHT22;5715;48.234;14.320;2023-04-03T08:09:32;3.40;99.90
11320;DHT22;5715;48.234;14.320;2023-04-03T08:12:20;3.50;99.90
11320;DHT22;5715;48.234;14.320;2023-04-03T08:15:09;3.70;99.90
11320;DHT22;5715;48.234;14.320;2023-04-03T08:17:57;3.70;99.90
11320;DHT22;5715;48.234;14.320;2023-04-03T08:20:49;3.80;99.90
11320;DHT22;5715;48.234;14.320;2023-04-03T08:23:37;3.90;99.90
11320;DHT22;5715;48.234;14.320;2023-04-03T08:26:26;4.00;99.90
11320;DHT22;5715;48.234;14.320;2023-04-03T08:29:14;4.10;99.90
11320;DHT22;5715;48.234;14.320;2023-04-03T08:32:02;4.30;99.90
11320;DHT22;5715;48.234;14.320;2023-04-03T08:34:49;4.40;99.90
11320;DHT22;5715;48.234;14.320;2023-04-03T08:37:38;4.40;99.90
11320;DHT22;5715;48.234;14.320;2023-04-03T08:40:26;4.50;99.90
11320;DHT22;5715;48.234;14.320;2023-04-03T08:43:48;4.50;99.90
11320;DHT22;5715;48.234;14.320;2023-04-03T08:50:29;4.60;99.90
11320;DHT22;5715;48.234;14.320;2023-04-03T08:53:25;4.60;99.90
11320;DHT22;5715;48.234;14.320;2023-04-03T08:56:18;4.80;99.90
11320;DHT22;5715;48.234;14.320;2023-04-03T08:59:12;4.90;99.90
11320;DHT22;5715;48.234;14.320;2023-04-03T09:02:31;5.10;99.90
11320;DHT22;5715;48.234;14.320;2023-04-03T09:05:43;5.10;99.90
11320;DHT22;5715;48.234;14.320;2023-04-03T09:08:53;5.10;99.90
11320;DHT22;5715;48.234;14.320;2023-04-03T09:12:27;5.40;99.90
11320;DHT22;5715;48.234;14.320;2023-04-03T09:15:26;5.50;99.90
11320;DHT22;5715;48.234;14.320;2023-04-03T09:18:39;5.40;99.90
11320;DHT22;5715;48.234;14.320;2023-04-03T09:21:38;5.20;99.90
11320;DHT22;5715;48.234;14.320;2023-04-03T09:24:31;5.40;99.90
11320;DHT22;5715;48.234;14.320;2023-04-03T09:27:20;5.30;99.90
11320;DHT22;5715;48.234;14.320;2023-04-03T09:30:14;5.30;99.90
11320;DHT22;5715;48.234;14.320;2023-04-03T09:33:04;5.30;99.90
11320;DHT22;5715;48.234;14.320;2023-04-03T09:35:52;5.20;99.90
11320;DHT22;5715;48.234;14.320;2023-04-03T09:38:40;5.20;99.90
11320;DHT22;5715;48.234;14.320;2023-04-03T09:41:27;5.30;99.90
11320;DHT22;5715;48.234;14.320;2023-04-03T09:44:26;5.30;99.90
11320;DHT22;5715;48.234;14.320;2023-04-03T09:47:27;5.30;99.90
11320;DHT22;5715;48.234;14.320;2023-04-03T09:50:21;5.50;99.90
11320;DHT22;5715;48.234;14.320;2023-04-03T09:53:42;5.60;99.90
11320;DHT22;5715;48.234;14.320;2023-04-03T09:56:31;5.50;99.90
11320;DHT22;5715;48.234;14.320;2023-04-03T09:59:21;5.40;99.90
11320;DHT22;5715;48.234;14.320;2023-04-03T10:02:32;5.50;99.90
11320;DHT22;5715;48.234;14.320;2023-04-03T10:08:34;5.60;99.90
11320;DHT22;5715;48.234;14.320;2023-04-03T10:11:22;5.60;99.90
11320;DHT22;5715;48.234;14.320;2023-04-03T10:14:16;5.60;99.90
11320;DHT22;5715;48.234;14.320;2023-04-03T10:20:41;5.90;99.90
11320;DHT22;5715;48.234;14.320;2023-04-03T10:27:17;6.30;99.90
11320;DHT22;5715;48.234;14.320;2023-04-03T10:30:36;6.30;99.90
11320;DHT22;5715;48.234;14.320;2023-04-03T10:37:46;6.70;99.90
11320;DHT22;5715;48.234;14.320;2023-04-03T10:43:44;7.30;99.90
11320;DHT22;5715;48.234;14.320;2023-04-03T10:50:58;7.20;99.90
11320;DHT22;5715;48.234;14.320;2023-04-03T10:57:11;7.10;99.90
11320;DHT22;5715;48.234;14.320;2023-04-03T11:00:04;7.40;99.90
11320;DHT22;5715;48.234;14.320;2023-04-03T11:02:59;7.80;99.90
11320;DHT22;5715;48.234;14.320;2023-04-03T11:05:54;7.90;99.90
11320;DHT22;5715;48.234;14.320;2023-04-03T11:08:57;7.90;99.90
11320;DHT22;5715;48.234;14.320;2023-04-03T11:12:13;7.80;99.90
11320;DHT22;5715;48.234;14.320;2023-04-03T11:15:03;7.10;99.90
11320;DHT22;5715;48.234;14.320;2023-04-03T11:18:02;6.50;99.90
11320;DHT22;5715;48.234;14.320;2023-04-03T11:24:24;5.80;99.90
11320;DHT22;5715;48.234;14.320;2023-04-03T11:27:21;5.90;99.90
11320;DHT22;5715;48.234;14.320;2023-04-03T11:30:19;5.80;99.90
11320;DHT22;5715;48.234;14.320;2023-04-03T11:36:46;5.50;99.90
11320;DHT22;5715;48.234;14.320;2023-04-03T11:39:38;5.60;99.90
11320;DHT22;5715;48.234;14.320;2023-04-03T11:42:39;5.50;99.90
11320;DHT22;5715;48.234;14.320;2023-04-03T11:48:45;5.60;99.90
11320;DHT22;5715;48.234;14.320;2023-04-03T11:51:40;5.70;99.90
11320;DHT22;5715;48.234;14.320;2023-04-03T12:00:50;5.50;99.90
11320;DHT22;5715;48.234;14.320;2023-04-03T12:09:27;5.80;99.90
11320;DHT22;5715;48.234;14.320;2023-04-03T12:18:44;5.60;99.90
11320;DHT22;5715;48.234;14.320;2023-04-03T12:24:26;5.80;99.90
11320;DHT22;5715;48.234;14.320;2023-04-03T12:27:40;5.60;99.90
11320;DHT22;5715;48.234;14.320;2023-04-03T12:30:30;5.50;99.90
11320;DHT22;5715;48.234;14.320;2023-04-03T12:36:54;5.60;99.90
11320;DHT22;5715;48.234;14.320;2023-04-03T12:46:47;6.10;99.90
11320;DHT22;5715;48.234;14.320;2023-04-03T12:49:41;6.00;99.90
11320;DHT22;5715;48.234;14.320;2023-04-03T12:55:31;6.20;99.90
11320;DHT22;5715;48.234;14.320;2023-04-03T12:58:26;6.40;99.90
11320;DHT22;5715;48.234;14.320;2023-04-03T13:01:25;6.30;99.90
11320;DHT22;5715;48.234;14.320;2023-04-03T13:04:13;6.20;99.90
11320;DHT22;5715;48.234;14.320;2023-04-03T13:07:00;6.10;99.90
11320;DHT22;5715;48.234;14.320;2023-04-03T13:10:13;6.30;99.90
11320;DHT22;5715;48.234;14.320;2023-04-03T13:13:10;6.10;99.90
11320;DHT22;5715;48.234;14.320;2023-04-03T13:15:58;5.90;99.90
11320;DHT22;5715;48.234;14.320;2023-04-03T13:18:52;5.90;99.90
11320;DHT22;5715;48.234;14.320;2023-04-03T13:21:40;5.90;99.90
11320;DHT22;5715;48.234;14.320;2023-04-03T13:24:30;5.80;99.90
11320;DHT22;5715;48.234;14.320;2023-04-03T13:27:22;5.90;99.90
11320;DHT22;5715;48.234;14.320;2023-04-03T13:30:20;6.20;99.90
11320;DHT22;5715;48.234;14.320;2023-04-03T13:33:25;6.70;99.90
11320;DHT22;5715;48.234;14.320;2023-04-03T13:36:20;7.30;99.90
11320;DHT22;5715;48.234;14.320;2023-04-03T13:42:26;7.30;99.90
11320;DHT22;5715;48.234;14.320;2023-04-03T13:45:21;7.90;99.90
11320;DHT22;5715;48.234;14.320;2023-04-03T13:48:18;7.50;99.90
11320;DHT22;5715;48.234;14.320;2023-04-03T13:54:19;6.70;99.90
11320;DHT22;5715;48.234;14.320;2023-04-03T13:57:16;6.30;99.90
11320;DHT22;5715;48.234;14.320;2023-04-03T14:03:44;6.30;99.90
11320;DHT22;5715;48.234;14.320;2023-04-03T14:06:40;6.10;99.90
11320;DHT22;5715;48.234;14.320;2023-04-03T14:09:28;5.90;99.90
11320;DHT22;5715;48.234;14.320;2023-04-03T14:12:26;5.80;99.90
11320;DHT22;5715;48.234;14.320;2023-04-03T14:15:27;5.80;99.90
11320;DHT22;5715;48.234;14.320;2023-04-03T14:18:20;5.90;99.90
11320;DHT22;5715;48.234;14.320;2023-04-03T14:21:13;6.00;99.90
11320;DHT22;5715;48.234;14.320;2023-04-03T14:24:01;6.00;99.90
11320;DHT22;5715;48.234;14.320;2023-04-03T14:26:51;6.00;99.90
11320;DHT22;5715;48.234;14.320;2023-04-03T14:29:39;6.00;99.90
11320;DHT22;5715;48.234;14.320;2023-04-03T14:32:27;6.10;99.90
11320;DHT22;5715;48.234;14.320;2023-04-03T14:35:16;6.00;99.90
11320;DHT22;5715;48.234;14.320;2023-04-03T14:38:34;6.00;99.90
11320;DHT22;5715;48.234;14.320;2023-04-03T14:41:23;6.10;99.90
11320;DHT22;5715;48.234;14.320;2023-04-03T14:44:13;6.00;99.90
11320;DHT22;5715;48.234;14.320;2023-04-03T14:47:01;6.00;99.90
11320;DHT22;5715;48.234;14.320;2023-04-03T14:49:48;6.00;99.90
11320;DHT22;5715;48.234;14.320;2023-04-03T14:52:36;5.90;99.90
11320;DHT22;5715;48.234;14.320;2023-04-03T14:55:26;6.10;99.90
11320;DHT22;5715;48.234;14.320;2023-04-03T14:58:23;6.00;99.90
11320;DHT22;5715;48.234;14.320;2023-04-03T15:01:11;5.90;99.90
11320;DHT22;5715;48.234;14.320;2023-04-03T15:04:01;5.80;99.90
11320;DHT22;5715;48.234;14.320;2023-04-03T15:06:49;5.90;99.90
11320;DHT22;5715;48.234;14.320;2023-04-03T15:09:38;5.80;99.90
11320;DHT22;5715;48.234;14.320;2023-04-03T15:12:26;5.90;99.90
11320;DHT22;5715;48.234;14.320;2023-04-03T15:15:14;5.90;99.90
11320;DHT22;5715;48.234;14.320;2023-04-03T15:18:04;5.90;99.90
11320;DHT22;5715;48.234;14.320;2023-04-03T15:20:53;5.80;99.90
11320;DHT22;5715;48.234;14.320;2023-04-03T15:23:41;5.90;99.90
11320;DHT22;5715;48.234;14.320;2023-04-03T15:26:30;5.90;99.90
11320;DHT22;5715;48.234;14.320;2023-04-03T15:29:18;5.90;99.90
11320;DHT22;5715;48.234;14.320;2023-04-03T15:32:06;5.90;99.90
11320;DHT22;5715;48.234;14.320;2023-04-03T15:34:54;5.80;99.90
11320;DHT22;5715;48.234;14.320;2023-04-03T15:37:43;5.80;99.90
11320;DHT22;5715;48.234;14.320;2023-04-03T15:40:30;5.70;99.90
11320;DHT22;5715;48.234;14.320;2023-04-03T15:43:18;5.60;99.90
11320;DHT22;5715;48.234;14.320;2023-04-03T15:46:06;5.70;99.90
11320;DHT22;5715;48.234;14.320;2023-04-03T15:48:54;5.70;99.90
11320;DHT22;5715;48.234;14.320;2023-04-03T15:51:41;5.70;99.90
11320;DHT22;5715;48.234;14.320;2023-04-03T15:54:29;5.60;99.90
11320;DHT22;5715;48.234;14.320;2023-04-03T15:57:16;5.60;99.90
11320;DHT22;5715;48.234;14.320;2023-04-03T16:00:05;5.60;99.90
11320;DHT22;5715;48.234;14.320;2023-04-03T16:03:00;5.40;99.90
11320;DHT22;5715;48.234;14.320;2023-04-03T16:05:52;5.20;99.90
11320;DHT22;5715;48.234;14.320;2023-04-03T16:08:40;5.10;99.90
11320;DHT22;5715;48.234;14.320;2023-04-03T16:11:29;4.90;99.90
11320;DHT22;5715;48.234;14.320;2023-04-03T16:14:17;4.70;99.90
11320;DHT22;5715;48.234;14.320;2023-04-03T16:17:04;4.50;99.90
11320;DHT22;5715;48.234;14.320;2023-04-03T16:19:54;4.40;99.90
11320;DHT22;5715;48.234;14.320;2023-04-03T16:22:42;4.40;99.90
11320;DHT22;5715;48.234;14.320;2023-04-03T16:25:30;4.30;99.90
11320;DHT22;5715;48.234;14.320;2023-04-03T16:28:18;4.40;99.90
11320;DHT22;5715;48.234;14.320;2023-04-03T16:31:07;4.30;99.90
11320;DHT22;5715;48.234;14.320;2023-04-03T16:33:55;4.30;99.90
11320;DHT22;5715;48.234;14.320;2023-04-03T16:36:43;4.20;99.90
11320;DHT22;5715;48.234;14.320;2023-04-03T16:39:31;4.20;99.90
11320;DHT22;5715;48.234;14.320;2023-04-03T16:42:18;4.20;99.90
11320;DHT22;5715;48.234;14.320;2023-04-03T16:45:07;4.30;99.90
11320;DHT22;5715;48.234;14.320;2023-04-03T16:47:55;4.30;99.90
11320;DHT22;5715;48.234;14.320;2023-04-03T16:50:46;4.30;99.90
11320;DHT22;5715;48.234;14.320;2023-04-03T16:53:40;4.20;99.90
11320;DHT22;5715;48.234;14.320;2023-04-03T16:56:29;4.20;99.90
11320;DHT22;5715;48.234;14.320;2023-04-03T16:59:17;4.20;99.90
11320;DHT22;5715;48.234;14.320;2023-04-03T17:02:04;4.10;99.90
11320;DHT22;5715;48.234;14.320;2023-04-03T17:04:53;4.10;99.90
11320;DHT22;5715;48.234;14.320;2023-04-03T17:07:41;4.10;99.90
11320;DHT22;5715;48.234;14.320;2023-04-03T17:10:28;4.10;99.90
11320;DHT22;5715;48.234;14.320;2023-04-03T17:13:17;4.10;99.90
11320;DHT22;5715;48.234;14.320;2023-04-03T17:16:07;4.00;99.90
11320;DHT22;5715;48.234;14.320;2023-04-03T17:18:58;4.00;99.90
11320;DHT22;5715;48.234;14.320;2023-04-03T17:21:47;4.00;99.90
11320;DHT22;5715;48.234;14.320;2023-04-03T17:24:34;3.90;99.90
11320;DHT22;5715;48.234;14.320;2023-04-03T17:27:23;3.90;99.90
11320;DHT22;5715;48.234;14.320;2023-04-03T17:30:10;3.80;99.90
11320;DHT22;5715;48.234;14.320;2023-04-03T17:32:58;3.80;99.90
11320;DHT22;5715;48.234;14.320;2023-04-03T17:35:46;3.80;99.90
11320;DHT22;5715;48.234;14.320;2023-04-03T17:38:34;3.70;99.90
11320;DHT22;5715;48.234;14.320;2023-04-03T17:41:22;3.60;99.90
11320;DHT22;5715;48.234;14.320;2023-04-03T17:44:11;3.60;99.90
11320;DHT22;5715;48.234;14.320;2023-04-03T17:46:59;3.50;99.90
11320;DHT22;5715;48.234;14.320;2023-04-03T17:49:47;3.50;99.90
11320;DHT22;5715;48.234;14.320;2023-04-03T17:52:34;3.50;99.90
11320;DHT22;5715;48.234;14.320;2023-04-03T17:55:22;3.50;99.90
11320;DHT22;5715;48.234;14.320;2023-04-03T17:58:09;3.50;99.90
11320;DHT22;5715;48.234;14.320;2023-04-03T18:00:57;3.40;99.90
11320;DHT22;5715;48.234;14.320;2023-04-03T18:03:46;3.40;99.90
11320;DHT22;5715;48.234;14.320;2023-04-03T18:06:41;3.30;99.90
11320;DHT22;5715;48.234;14.320;2023-04-03T18:09:35;3.20;99.90
11320;DHT22;5715;48.234;14.320;2023-04-03T18:12:25;3.10;99.90
11320;DHT22;5715;48.234;14.320;2023-04-03T18:15:13;3.10;99.90
11320;DHT22;5715;48.234;14.320;2023-04-03T18:18:00;3.10;99.90
11320;DHT22;5715;48.234;14.320;2023-04-03T18:20:48;3.10;99.90
11320;DHT22;5715;48.234;14.320;2023-04-03T18:23:40;3.00;99.90
11320;DHT22;5715;48.234;14.320;2023-04-03T18:26:40;3.00;99.90
11320;DHT22;5715;48.234;14.320;2023-04-03T18:29:32;3.00;99.90
11320;DHT22;5715;48.234;14.320;2023-04-03T18:32:22;3.00;99.90
11320;DHT22;5715;48.234;14.320;2023-04-03T18:35:10;2.90;99.90
11320;DHT22;5715;48.234;14.320;2023-04-03T18:37:58;3.00;99.90
11320;DHT22;5715;48.234;14.320;2023-04-03T18:40:45;2.90;99.90
11320;DHT22;5715;48.234;14.320;2023-04-03T18:43:33;2.90;99.90
11320;DHT22;5715;48.234;14.320;2023-04-03T18:46:21;2.90;99.90
11320;DHT22;5715;48.234;14.320;2023-04-03T18:49:10;2.80;99.90
11320;DHT22;5715;48.234;14.320;2023-04-03T18:51:59;2.90;99.90
11320;DHT22;5715;48.234;14.320;2023-04-03T18:54:47;2.90;99.90
11320;DHT22;5715;48.234;14.320;2023-04-03T18:57:34;2.90;99.90
11320;DHT22;5715;48.234;14.320;2023-04-03T19:00:22;2.90;99.90
11320;DHT22;5715;48.234;14.320;2023-04-03T19:03:10;2.90;99.90
11320;DHT22;5715;48.234;14.320;2023-04-03T19:05:59;2.90;99.90
11320;DHT22;5715;48.234;14.320;2023-04-03T19:08:51;3.00;99.90
11320;DHT22;5715;48.234;14.320;2023-04-03T19:11:39;2.90;99.90
11320;DHT22;5715;48.234;14.320;2023-04-03T19:14:26;3.00;99.90
11320;DHT22;5715;48.234;14.320;2023-04-03T19:17:14;3.00;99.90
11320;DHT22;5715;48.234;14.320;2023-04-03T19:20:02;3.00;99.90
11320;DHT22;5715;48.234;14.320;2023-04-03T19:22:50;3.00;99.90
11320;DHT22;5715;48.234;14.320;2023-04-03T19:25:38;3.00;99.90
11320;DHT22;5715;48.234;14.320;2023-04-03T19:28:27;3.00;99.90
11320;DHT22;5715;48.234;14.320;2023-04-03T19:31:17;3.00;99.90
11320;DHT22;5715;48.234;14.320;2023-04-03T19:34:09;3.10;99.90
11320;DHT22;5715;48.234;14.320;2023-04-03T19:36:56;3.10;99.90
11320;DHT22;5715;48.234;14.320;2023-04-03T19:39:45;3.10;99.90
11320;DHT22;5715;48.234;14.320;2023-04-03T19:42:33;3.10;99.90